Time;durP1;ratioP1;P1;durP2;ratioP2;P2;SDS_P1;SDS_P2;PMS_P1;PMS_P2;Temp;Humidity;BMP_temperature;BMP_pressure;BME280_temperature;BME280_humidity;BME280_pressure;Samples;Min_cycle;Max_cycle;Signal;HPM_P1;HPM_P2
2021/03/12 00:00:16;;;;;;;6.25;3.58;;;0.30;99.90;;;;;;5018760;28;20788;-84
2021/03/12 00:02:43;;;;;;;6.05;3.30;;;0.30;99.90;;;;;;5019890;28;20682;-84
2021/03/12 00:05:09;;;;;;;5.20;3.20;;;0.30;99.90;;;;;;5010243;28;20653;-83
2021/03/12 00:07:36;;;;;;;4.32;2.85;;;0.40;99.90;;;;;;5009281;28;20209;-84
2021/03/12 00:10:07;;;;;;;5.28;3.38;;;0.30;99.90;;;;;;5020842;28;20190;-83
2021/03/12 00:12:32;;;;;;;5.90;3.47;;;0.30;99.90;;;;;;5017729;28;20206;-83
2021/03/12 00:14:58;;;;;;;5.45;3.38;;;0.30;99.90;;;;;;5007294;28;20201;-84
2021/03/12 00:17:24;;;;;;;4.97;3.13;;;0.30;99.90;;;;;;5020825;28;20538;-84
2021/03/12 00:19:50;;;;;;;4.38;2.83;;;0.40;99.90;;;;;;5021275;28;20248;-84
2021/03/12 00:22:15;;;;;;;5.05;2.95;;;0.30;99.90;;;;;;5011337;28;20566;-84
2021/03/12 00:24:41;;;;;;;5.55;3.35;;;0.40;99.90;;;;;;5018860;28;20210;-85
2021/03/12 00:27:07;;;;;;;4.25;2.90;;;0.30;99.90;;;;;;5008628;28;20684;-85
2021/03/12 00:29:33;;;;;;;7.50;3.20;;;0.30;99.90;;;;;;5023892;28;20227;-84
2021/03/12 00:31:58;;;;;;;7.15;2.80;;;0.40;99.90;;;;;;5023926;28;20206;-85
2021/03/12 00:34:24;;;;;;;4.45;2.88;;;0.40;99.90;;;;;;5022299;28;20244;-85
2021/03/12 00:36:51;;;;;;;5.18;2.53;;;0.40;99.90;;;;;;5020267;28;20612;-85
2021/03/12 00:39:17;;;;;;;3.92;2.53;;;0.40;99.90;;;;;;5043437;28;20206;-84
2021/03/12 00:41:43;;;;;;;5.97;2.92;;;0.40;99.90;;;;;;5024559;28;20225;-84
2021/03/12 00:44:08;;;;;;;4.55;3.20;;;0.40;99.90;;;;;;5040578;28;20228;-85
2021/03/12 00:46:34;;;;;;;8.45;3.22;;;0.40;99.90;;;;;;5025360;28;20224;-85
2021/03/12 00:49:00;;;;;;;5.13;2.80;;;0.40;99.90;;;;;;5026982;28;20276;-85
2021/03/12 00:51:25;;;;;;;6.32;2.90;;;0.40;99.90;;;;;;5024548;28;20252;-84
2021/03/12 00:53:51;;;;;;;4.80;2.88;;;0.40;99.90;;;;;;5032760;28;20220;-85
2021/03/12 00:56:17;;;;;;;6.60;3.00;;;0.40;99.90;;;;;;5024986;28;20268;-85
2021/03/12 00:58:42;;;;;;;4.78;2.78;;;0.40;99.90;;;;;;5023478;28;20201;-84
2021/03/12 01:01:08;;;;;;;4.72;2.88;;;0.40;99.90;;;;;;5027039;28;20243;-85
2021/03/12 01:03:34;;;;;;;8.75;3.13;;;0.40;99.90;;;;;;5022598;28;20197;-84
2021/03/12 01:05:59;;;;;;;4.57;3.10;;;0.40;99.90;;;;;;5023782;28;20202;-85
2021/03/12 01:08:25;;;;;;;5.13;3.05;;;0.40;99.90;;;;;;5041133;28;20198;-85
2021/03/12 01:10:51;;;;;;;4.75;3.00;;;0.40;99.90;;;;;;5031422;28;20198;-84
2021/03/12 01:13:16;;;;;;;4.93;2.90;;;0.40;99.90;;;;;;5028942;28;20213;-86
2021/03/12 01:15:42;;;;;;;5.93;3.33;;;0.40;99.90;;;;;;5023466;28;20605;-85
2021/03/12 01:18:08;;;;;;;5.18;2.97;;;0.40;99.90;;;;;;5035031;28;20229;-85
2021/03/12 01:20:38;;;;;;;4.93;2.78;;;0.40;99.90;;;;;;5030005;28;20197;-86
2021/03/12 01:23:04;;;;;;;4.38;2.60;;;0.30;99.90;;;;;;5024372;28;20213;-84
2021/03/12 01:25:40;;;;;;;4.40;2.50;;;0.30;99.90;;;;;;5020661;28;20250;-87
2021/03/12 01:28:06;;;;;;;4.72;2.60;;;0.40;99.90;;;;;;5027792;28;20235;-84
2021/03/12 01:30:34;;;;;;;4.78;2.67;;;0.30;99.90;;;;;;5027753;28;20201;-84
2021/03/12 01:33:00;;;;;;;5.78;2.67;;;0.30;99.90;;;;;;5034364;28;20263;-83
2021/03/12 01:35:25;;;;;;;3.80;2.50;;;0.30;99.90;;;;;;5022796;28;20672;-83
2021/03/12 01:37:51;;;;;;;3.80;2.50;;;0.30;99.90;;;;;;5040191;28;20259;-81
2021/03/12 01:40:19;;;;;;;4.38;2.45;;;0.30;99.90;;;;;;5043757;28;20204;-83
2021/03/12 01:42:45;;;;;;;3.95;2.50;;;0.30;99.90;;;;;;5038671;28;20212;-82
2021/03/12 01:45:14;;;;;;;4.47;2.55;;;0.30;99.90;;;;;;5019617;28;20758;-82
2021/03/12 01:47:40;;;;;;;3.42;2.30;;;0.20;99.90;;;;;;5023815;28;20212;-82
2021/03/12 01:50:07;;;;;;;3.47;2.40;;;0.30;99.90;;;;;;5024405;28;20208;-83
2021/03/12 01:52:33;;;;;;;4.28;2.22;;;0.30;99.90;;;;;;5029348;28;20752;-86
2021/03/12 01:54:59;;;;;;;2.97;2.13;;;0.30;99.90;;;;;;5024840;28;20679;-84
2021/03/12 01:57:25;;;;;;;3.47;2.22;;;0.30;99.90;;;;;;5021634;28;20198;-84
2021/03/12 01:59:51;;;;;;;4.00;2.30;;;0.30;99.90;;;;;;5030043;28;20738;-83
2021/03/12 02:02:17;;;;;;;3.00;2.00;;;0.30;99.90;;;;;;5021094;28;20197;-83
2021/03/12 02:04:42;;;;;;;2.80;2.20;;;0.20;99.90;;;;;;5020053;28;20202;-83
2021/03/12 02:07:08;;;;;;;3.22;2.30;;;0.20;99.90;;;;;;5020357;28;20723;-82
2021/03/12 02:09:35;;;;;;;3.13;2.20;;;0.20;99.90;;;;;;5024423;28;20206;-82
2021/03/12 02:12:03;;;;;;;2.95;2.10;;;0.20;99.90;;;;;;5027264;28;20582;-82
2021/03/12 02:14:58;;;;;;;5.05;2.20;;;0.20;99.90;;;;;;5031564;28;20311;-81
2021/03/12 02:17:27;;;;;;;3.47;2.28;;;0.20;99.90;;;;;;5027308;28;20219;-83
2021/03/12 02:20:15;;;;;;;3.03;2.00;;;0.20;99.90;;;;;;5028249;28;20201;-81
2021/03/12 02:22:47;;;;;;;4.13;2.22;;;0.20;99.90;;;;;;5030980;28;20225;-84
2021/03/12 02:25:16;;;;;;;3.80;2.28;;;0.20;99.90;;;;;;5029625;28;20208;-83
2021/03/12 02:27:43;;;;;;;2.88;2.03;;;0.20;99.90;;;;;;5026110;28;20837;-84
2021/03/12 02:30:10;;;;;;;3.38;1.90;;;0.20;99.90;;;;;;5028931;28;20248;-84
2021/03/12 02:32:39;;;;;;;7.43;1.98;;;0.20;99.90;;;;;;5034996;28;20210;-85
2021/03/12 02:35:20;;;;;;;6.13;2.30;;;0.20;99.90;;;;;;5032098;28;20194;-85
2021/03/12 02:37:47;;;;;;;3.05;1.92;;;0.20;99.90;;;;;;5028503;28;20193;-85
2021/03/12 02:40:13;;;;;;;2.67;1.80;;;0.20;99.90;;;;;;5029251;28;20217;-85
2021/03/12 02:42:41;;;;;;;9.00;2.30;;;0.20;99.90;;;;;;5031118;28;21042;-84
2021/03/12 02:45:10;;;;;;;4.20;2.33;;;0.20;99.90;;;;;;5028323;28;20190;-83
2021/03/12 02:47:37;;;;;;;4.93;2.30;;;0.20;99.90;;;;;;5029997;28;20251;-84
2021/03/12 02:50:05;;;;;;;3.22;2.05;;;0.20;99.90;;;;;;5026024;28;20567;-85
2021/03/12 02:52:31;;;;;;;2.92;1.85;;;0.20;99.90;;;;;;5028584;28;20217;-84
2021/03/12 02:54:57;;;;;;;3.47;2.25;;;0.20;99.90;;;;;;5026072;28;20221;-83
2021/03/12 02:57:23;;;;;;;5.20;2.42;;;0.20;99.90;;;;;;5033831;28;20221;-83
2021/03/12 02:59:52;;;;;;;2.92;1.85;;;0.20;99.90;;;;;;5028854;28;20575;-83
2021/03/12 03:02:21;;;;;;;3.35;2.22;;;0.20;99.90;;;;;;5039797;28;20199;-83
2021/03/12 03:04:47;;;;;;;3.08;2.15;;;0.30;99.90;;;;;;5032082;28;20193;-84
2021/03/12 03:07:15;;;;;;;3.20;1.88;;;0.30;99.90;;;;;;5041765;28;20783;-84
2021/03/12 03:09:41;;;;;;;3.28;2.00;;;0.30;99.90;;;;;;5045464;28;20199;-83
2021/03/12 03:12:11;;;;;;;3.38;2.00;;;0.30;99.90;;;;;;5029089;28;20206;-83
2021/03/12 03:14:38;;;;;;;3.42;2.10;;;0.30;99.90;;;;;;5042770;28;20198;-84
2021/03/12 03:17:07;;;;;;;4.05;2.17;;;0.30;99.90;;;;;;5029437;28;20284;-84
2021/03/12 03:19:34;;;;;;;4.97;2.25;;;0.30;99.90;;;;;;5023587;28;20229;-84
2021/03/12 03:22:02;;;;;;;3.33;1.92;;;0.30;99.90;;;;;;5038841;28;20336;-83
2021/03/12 03:24:29;;;;;;;2.83;1.80;;;0.30;99.90;;;;;;5028845;28;20251;-83
2021/03/12 03:26:55;;;;;;;5.88;2.05;;;0.30;99.90;;;;;;5030997;28;20312;-81
2021/03/12 03:29:21;;;;;;;3.08;1.77;;;0.30;99.90;;;;;;5041778;28;20224;-82
2021/03/12 03:31:48;;;;;;;2.45;1.67;;;0.30;99.90;;;;;;5043895;28;20288;-82
2021/03/12 03:34:14;;;;;;;1.85;1.50;;;0.30;99.90;;;;;;5025778;28;20677;-80
2021/03/12 03:36:40;;;;;;;2.40;1.70;;;0.30;99.90;;;;;;5025228;28;20430;-82
2021/03/12 03:39:10;;;;;;;1.77;1.40;;;0.30;99.90;;;;;;5046042;28;20198;-81
2021/03/12 03:41:49;;;;;;;2.22;1.50;;;0.30;99.90;;;;;;5025655;28;20565;-81
2021/03/12 03:44:18;;;;;;;1.88;1.52;;;0.30;99.90;;;;;;5028577;28;20198;-81
2021/03/12 03:53:31;;;;;;;1.80;1.40;;;0.30;99.90;;;;;;5041754;28;20220;-80
2021/03/12 03:55:59;;;;;;;2.63;1.55;;;0.40;99.90;;;;;;5029908;28;20186;-79
2021/03/12 03:58:26;;;;;;;2.35;1.30;;;0.30;99.90;;;;;;5043553;28;20220;-80
2021/03/12 04:00:52;;;;;;;4.40;1.55;;;0.30;99.90;;;;;;5026929;28;20198;-81
2021/03/12 04:03:17;;;;;;;3.38;1.92;;;0.40;99.90;;;;;;5027450;28;20231;-80
2021/03/12 04:05:44;;;;;;;2.53;1.80;;;0.40;99.90;;;;;;5030815;28;20603;-80
2021/03/12 04:08:10;;;;;;;3.40;2.13;;;0.40;99.90;;;;;;5023027;28;20209;-80
2021/03/12 04:10:36;;;;;;;2.85;2.05;;;0.40;99.90;;;;;;5035653;28;20207;-79
2021/03/12 04:13:02;;;;;;;3.40;2.42;;;0.40;99.90;;;;;;5016913;28;20208;-79
2021/03/12 04:15:28;;;;;;;3.40;2.30;;;0.40;99.90;;;;;;5040027;28;20281;-81
2021/03/12 04:17:56;;;;;;;4.90;2.50;;;0.40;99.90;;;;;;5040984;28;20194;-80
2021/03/12 04:20:22;;;;;;;3.50;2.50;;;0.40;99.90;;;;;;5027789;28;20277;-83
2021/03/12 04:22:50;;;;;;;5.43;2.47;;;0.40;99.90;;;;;;5044433;28;20217;-80
2021/03/12 04:25:16;;;;;;;3.42;2.15;;;0.40;99.90;;;;;;5027356;28;20297;-80
2021/03/12 04:27:43;;;;;;;4.18;2.60;;;0.50;99.90;;;;;;5019142;28;20238;-81
2021/03/12 04:30:10;;;;;;;3.42;2.10;;;0.50;99.90;;;;;;5003367;28;20937;-79
2021/03/12 04:32:39;;;;;;;2.05;1.60;;;0.50;99.90;;;;;;5001199;28;20202;-80
2021/03/12 04:35:07;;;;;;;2.50;1.80;;;0.40;99.90;;;;;;5025012;28;20206;-81
2021/03/12 04:37:34;;;;;;;2.00;1.67;;;0.50;99.90;;;;;;5003952;28;20214;-80
2021/03/12 04:40:00;;;;;;;2.03;1.52;;;0.50;99.90;;;;;;5007665;28;20738;-80
2021/03/12 04:42:26;;;;;;;2.40;1.50;;;0.50;99.90;;;;;;5010863;28;20244;-81
2021/03/12 04:44:52;;;;;;;2.30;1.60;;;0.60;99.90;;;;;;5012207;28;20206;-82
2021/03/12 04:47:20;;;;;;;1.55;1.30;;;0.60;99.90;;;;;;5008339;28;20697;-81
2021/03/12 04:50:04;;;;;;;1.98;1.30;;;0.60;99.90;;;;;;5020772;28;20191;-80
2021/03/12 04:52:30;;;;;;;1.60;1.35;;;0.50;99.90;;;;;;5007856;28;20217;-81
2021/03/12 04:54:57;;;;;;;1.30;1.17;;;0.50;99.90;;;;;;5002077;28;20190;-83
2021/03/12 04:57:23;;;;;;;1.20;1.10;;;0.60;99.90;;;;;;5027754;28;20217;-83
2021/03/12 04:59:50;;;;;;;1.17;1.00;;;0.50;99.90;;;;;;5004061;28;20238;-81
2021/03/12 05:02:17;;;;;;;1.48;1.33;;;0.50;99.90;;;;;;5004888;28;20198;-81
2021/03/12 05:04:43;;;;;;;1.33;1.08;;;0.50;99.90;;;;;;5003075;28;20203;-81
2021/03/12 05:07:11;;;;;;;1.25;1.10;;;0.50;99.90;;;;;;5031362;28;20201;-80
2021/03/12 05:09:39;;;;;;;1.05;0.95;;;0.60;99.90;;;;;;5026058;28;20226;-81
2021/03/12 05:12:05;;;;;;;1.05;1.00;;;0.60;99.90;;;;;;5010206;28;20551;-81
2021/03/12 05:14:31;;;;;;;1.10;1.00;;;0.60;99.90;;;;;;5013044;28;20667;-81
2021/03/12 05:16:56;;;;;;;1.20;1.10;;;0.60;99.90;;;;;;5020509;28;20202;-81
2021/03/12 05:19:23;;;;;;;1.02;1.00;;;0.60;99.90;;;;;;5010613;28;20201;-81
2021/03/12 05:21:48;;;;;;;1.42;1.00;;;0.60;99.90;;;;;;5008554;28;20221;-80
2021/03/12 05:24:14;;;;;;;1.08;1.00;;;0.60;99.90;;;;;;5023716;28;20202;-81
2021/03/12 05:26:40;;;;;;;1.25;1.15;;;0.70;99.90;;;;;;5008264;28;20572;-77
2021/03/12 05:29:05;;;;;;;1.08;1.00;;;0.70;99.90;;;;;;5030490;28;20313;-82
2021/03/12 05:31:31;;;;;;;1.10;1.00;;;0.60;99.90;;;;;;5039559;28;20284;-80
2021/03/12 05:33:57;;;;;;;1.10;1.00;;;0.60;99.90;;;;;;5040523;28;20245;-79
2021/03/12 05:36:23;;;;;;;1.40;1.10;;;0.60;99.90;;;;;;5044671;28;20194;-81
2021/03/12 05:38:49;;;;;;;0.90;0.90;;;0.70;99.90;;;;;;5019682;28;20249;-80
2021/03/12 05:41:17;;;;;;;1.48;1.08;;;0.70;99.90;;;;;;5026856;28;20224;-79
2021/03/12 05:43:43;;;;;;;1.20;1.10;;;0.70;99.90;;;;;;5047585;28;20197;-79
2021/03/12 05:46:10;;;;;;;1.30;1.20;;;0.80;99.90;;;;;;5046565;28;20606;-79
2021/03/12 05:48:36;;;;;;;1.30;1.10;;;0.80;99.90;;;;;;5016645;28;20289;-77
2021/03/12 05:51:02;;;;;;;1.17;1.08;;;0.80;99.90;;;;;;5031439;28;20213;-78
2021/03/12 05:53:29;;;;;;;1.38;1.10;;;0.80;99.90;;;;;;5021413;28;20308;-77
2021/03/12 05:55:56;;;;;;;1.50;1.27;;;0.90;99.90;;;;;;5048589;28;20196;-77
2021/03/12 05:58:22;;;;;;;1.33;1.23;;;0.90;99.90;;;;;;5054420;28;20193;-81
2021/03/12 06:00:48;;;;;;;1.40;1.30;;;0.90;99.90;;;;;;5056218;28;20213;-78
2021/03/12 06:03:14;;;;;;;1.30;1.20;;;0.90;99.90;;;;;;5034227;28;21100;-76
2021/03/12 06:05:44;;;;;;;1.20;1.10;;;1.00;99.90;;;;;;5053447;28;20197;-76
2021/03/12 06:08:10;;;;;;;1.30;1.20;;;1.00;99.90;;;;;;5027808;28;20211;-78
2021/03/12 06:10:35;;;;;;;1.30;1.10;;;1.00;99.90;;;;;;5040912;28;20200;-77
2021/03/12 06:13:01;;;;;;;1.33;1.10;;;1.00;99.90;;;;;;5043813;28;20316;-80
2021/03/12 06:15:38;;;;;;;1.13;1.02;;;1.00;99.90;;;;;;5065564;28;20555;-78
2021/03/12 06:18:20;;;;;;;0.90;0.88;;;1.00;99.90;;;;;;5037571;28;20216;-78
2021/03/12 06:20:46;;;;;;;1.10;1.00;;;1.00;99.90;;;;;;5040379;28;20212;-80
2021/03/12 06:23:12;;;;;;;1.30;1.08;;;1.00;99.90;;;;;;5028498;28;20202;-77
2021/03/12 06:25:38;;;;;;;1.10;1.00;;;1.00;99.90;;;;;;5030772;28;20204;-76
2021/03/12 06:28:21;;;;;;;1.30;1.20;;;1.10;99.90;;;;;;5033638;28;20814;-78
2021/03/12 06:30:47;;;;;;;1.58;1.40;;;1.10;99.90;;;;;;5052207;28;20635;-78
2021/03/12 06:33:35;;;;;;;1.40;1.30;;;1.10;99.90;;;;;;5049885;28;20351;-81
2021/03/12 06:36:03;;;;;;;1.40;1.30;;;1.10;99.90;;;;;;5033565;28;20193;-79
2021/03/12 06:38:29;;;;;;;1.40;1.30;;;1.10;99.90;;;;;;5035136;28;20203;-79
2021/03/12 06:40:55;;;;;;;1.38;1.27;;;1.10;99.90;;;;;;5035167;28;20654;-79
2021/03/12 06:43:23;;;;;;;1.30;1.20;;;1.10;99.90;;;;;;5039744;28;20259;-78
2021/03/12 06:45:49;;;;;;;1.45;1.20;;;1.10;99.90;;;;;;5034990;28;20283;-80
2021/03/12 06:48:18;;;;;;;1.20;1.10;;;1.10;99.90;;;;;;5042367;28;20201;-80
2021/03/12 06:51:02;;;;;;;1.38;1.20;;;1.10;99.90;;;;;;5034726;28;20224;-79
2021/03/12 06:53:32;;;;;;;1.35;1.20;;;1.20;99.90;;;;;;5032774;28;20247;-79
2021/03/12 06:56:03;;;;;;;1.40;1.30;;;1.20;99.90;;;;;;5054116;28;20216;-78
2021/03/12 06:58:30;;;;;;;1.20;1.10;;;1.30;99.90;;;;;;5040312;28;20197;-79
2021/03/12 07:00:57;;;;;;;1.20;1.10;;;1.30;99.90;;;;;;5034075;28;20193;-79
2021/03/12 07:03:28;;;;;;;1.17;1.08;;;1.40;99.90;;;;;;5050820;28;20280;-79
2021/03/12 07:05:58;;;;;;;1.10;1.00;;;1.40;99.90;;;;;;5035144;28;20252;-79
2021/03/12 07:08:29;;;;;;;1.20;1.10;;;1.50;99.90;;;;;;5028718;28;20949;-79
2021/03/12 07:10:55;;;;;;;1.20;1.10;;;1.50;99.90;;;;;;5031969;28;20197;-80
2021/03/12 07:13:20;;;;;;;1.70;1.08;;;1.50;99.90;;;;;;5028723;28;20262;-77
2021/03/12 07:15:50;;;;;;;1.20;1.10;;;1.50;99.90;;;;;;5047854;28;20257;-81
2021/03/12 07:18:16;;;;;;;1.90;1.10;;;1.50;99.90;;;;;;5028627;28;20248;-80
2021/03/12 07:20:42;;;;;;;1.30;1.20;;;1.50;99.90;;;;;;5033289;28;20196;-79
2021/03/12 07:23:08;;;;;;;0.95;0.95;;;1.60;99.90;;;;;;5031433;28;20217;-78
2021/03/12 07:25:34;;;;;;;1.58;0.93;;;1.60;99.90;;;;;;5031268;28;21106;-77
2021/03/12 07:28:02;;;;;;;1.10;1.00;;;1.60;99.90;;;;;;5036183;28;20232;-77
2021/03/12 07:30:29;;;;;;;1.08;1.00;;;1.60;99.90;;;;;;5033995;28;20256;-78
2021/03/12 07:32:58;;;;;;;1.27;1.05;;;1.70;99.90;;;;;;5011641;28;20300;-80
2021/03/12 07:35:26;;;;;;;1.25;1.10;;;1.70;99.90;;;;;;5022161;28;20229;-78
2021/03/12 07:37:53;;;;;;;3.38;1.10;;;1.70;99.90;;;;;;5040815;28;20675;-82
2021/03/12 07:40:20;;;;;;;0.90;0.90;;;1.70;99.90;;;;;;5027739;28;20190;-76
2021/03/12 07:42:46;;;;;;;1.30;1.20;;;1.70;99.90;;;;;;5031790;28;20201;-78
2021/03/12 07:45:16;;;;;;;1.10;1.00;;;1.70;99.90;;;;;;5050311;28;20197;-81
2021/03/12 07:47:44;;;;;;;1.10;1.00;;;1.70;99.90;;;;;;5045199;28;20228;-79
2021/03/12 07:50:29;;;;;;;1.23;1.08;;;1.60;99.90;;;;;;5049544;28;21022;-80
2021/03/12 07:52:56;;;;;;;1.00;0.93;;;1.70;99.90;;;;;;5027598;28;20253;-79
2021/03/12 07:55:39;;;;;;;0.90;0.90;;;1.70;99.90;;;;;;5034272;28;20204;-79
2021/03/12 07:58:09;;;;;;;1.27;0.98;;;1.70;99.90;;;;;;5033414;28;20674;-80
2021/03/12 08:01:05;;;;;;;1.27;1.17;;;1.80;99.90;;;;;;5046027;28;20194;-80
2021/03/12 08:03:37;;;;;;;1.10;1.00;;;1.70;99.90;;;;;;5014888;28;20217;-77
2021/03/12 08:06:23;;;;;;;1.02;0.98;;;1.80;99.90;;;;;;5040660;28;20323;-76
2021/03/12 08:08:49;;;;;;;1.10;1.00;;;1.90;99.90;;;;;;5042835;28;20713;-76
2021/03/12 08:11:32;;;;;;;1.05;1.00;;;2.10;99.90;;;;;;5027542;28;20189;-80
2021/03/12 08:14:18;;;;;;;1.10;1.00;;;2.20;99.90;;;;;;5028990;28;20228;-80
2021/03/12 08:16:57;;;;;;;1.15;1.00;;;2.30;99.90;;;;;;5024444;28;20197;-80
2021/03/12 08:19:34;;;;;;;1.20;0.98;;;2.40;99.90;;;;;;5033647;28;20202;-80
2021/03/12 08:22:21;;;;;;;1.58;1.10;;;2.50;99.90;;;;;;5038233;28;20256;-79
2021/03/12 08:24:50;;;;;;;1.50;1.00;;;2.40;99.90;;;;;;5028417;28;20260;-80
2021/03/12 08:27:48;;;;;;;0.98;0.88;;;2.50;99.90;;;;;;5042981;28;20326;-80
2021/03/12 08:30:23;;;;;;;1.20;1.10;;;2.70;99.90;;;;;;5028847;28;20301;-80
2021/03/12 08:32:49;;;;;;;1.30;1.20;;;2.80;99.90;;;;;;5005738;28;20750;-81
2021/03/12 08:35:50;;;;;;;1.55;1.10;;;3.00;99.90;;;;;;5017578;28;20198;-80
2021/03/12 08:38:25;;;;;;;2.70;1.00;;;3.20;99.90;;;;;;4976692;28;20790;-82
2021/03/12 08:41:00;;;;;;;1.20;1.10;;;3.20;99.90;;;;;;4999360;28;20225;-81
2021/03/12 08:43:31;;;;;;;1.35;1.10;;;3.20;99.90;;;;;;4999873;28;20199;-80
2021/03/12 08:46:04;;;;;;;1.20;1.10;;;3.10;99.90;;;;;;5021618;28;20194;-79
2021/03/12 08:48:35;;;;;;;1.45;1.30;;;3.10;99.90;;;;;;5017304;28;20309;-80
2021/03/12 08:51:05;;;;;;;1.77;1.00;;;3.00;99.90;;;;;;4998478;28;20197;-80
2021/03/12 08:53:34;;;;;;;0.95;0.90;;;3.10;99.90;;;;;;5021010;28;20244;-80
2021/03/12 08:56:02;;;;;;;1.10;0.95;;;3.10;99.90;;;;;;5017525;28;20191;-80
2021/03/12 08:58:36;;;;;;;1.10;0.95;;;3.30;99.90;;;;;;5004698;28;20294;-80
2021/03/12 09:01:16;;;;;;;1.20;1.10;;;3.40;99.90;;;;;;4998055;28;20288;-80
2021/03/12 09:03:49;;;;;;;1.13;1.00;;;3.50;99.90;;;;;;5003722;28;20739;-79
2021/03/12 09:06:38;;;;;;;0.80;0.80;;;3.70;99.90;;;;;;5004724;28;20333;-77
2021/03/12 09:09:05;;;;;;;1.33;1.15;;;3.90;99.90;;;;;;5016732;28;20706;-77
2021/03/12 09:11:31;;;;;;;1.58;1.00;;;3.90;99.90;;;;;;4999787;28;20206;-79
2021/03/12 09:14:00;;;;;;;1.60;1.20;;;4.10;99.90;;;;;;5003091;28;20194;-83
2021/03/12 09:16:28;;;;;;;1.88;1.20;;;4.10;99.90;;;;;;5006261;28;20653;-81
2021/03/12 09:18:55;;;;;;;3.13;1.30;;;4.20;99.90;;;;;;5000415;28;20194;-81
2021/03/12 09:21:23;;;;;;;1.70;1.25;;;4.20;99.90;;;;;;5004017;28;20844;-80
2021/03/12 09:23:52;;;;;;;2.25;1.38;;;4.00;99.90;;;;;;5014639;28;20198;-81
2021/03/12 09:26:18;;;;;;;3.33;1.30;;;4.30;99.90;;;;;;5006708;28;20255;-81
2021/03/12 09:28:47;;;;;;;3.17;1.30;;;4.80;99.90;;;;;;5014404;28;20248;-81
2021/03/12 09:31:15;;;;;;;1.40;1.30;;;4.90;99.90;;;;;;5014323;28;20959;-80
2021/03/12 09:33:44;;;;;;;1.50;1.10;;;5.10;99.90;;;;;;5019631;28;20274;-76
2021/03/12 09:36:29;;;;;;;1.35;1.10;;;5.20;99.90;;;;;;5012007;28;20205;-80
2021/03/12 09:39:26;;;;;;;1.88;1.38;;;5.50;99.90;;;;;;5014756;28;20209;-77
2021/03/12 09:41:55;;;;;;;3.85;1.60;;;5.80;99.90;;;;;;5005321;28;20217;-81
2021/03/12 09:44:22;;;;;;;1.60;1.40;;;5.40;99.90;;;;;;5012121;28;20202;-79
2021/03/12 09:46:51;;;;;;;2.10;1.33;;;5.20;99.90;;;;;;5002661;28;20209;-77
2021/03/12 09:49:23;;;;;;;2.83;1.30;;;5.30;99.90;;;;;;5002758;28;20209;-82
2021/03/12 09:51:56;;;;;;;1.88;1.30;;;5.70;99.90;;;;;;5022390;28;20202;-84
2021/03/12 09:54:25;;;;;;;1.95;1.50;;;6.20;99.90;;;;;;5024075;28;20689;-82
2021/03/12 09:56:53;;;;;;;2.95;1.40;;;6.30;99.90;;;;;;5010351;28;20190;-82
2021/03/12 09:59:39;;;;;;;1.83;1.30;;;6.10;99.90;;;;;;5006659;28;20225;-82
2021/03/12 10:02:07;;;;;;;1.90;1.35;;;6.60;99.90;;;;;;5000327;28;20241;-80
2021/03/12 10:04:38;;;;;;;4.25;1.20;;;6.90;99.90;;;;;;5019611;28;20558;-78
2021/03/12 10:07:15;;;;;;;3.35;1.30;;;7.00;99.90;;;;;;5001268;28;20226;-79
2021/03/12 10:09:46;;;;;;;1.70;1.30;;;7.30;99.90;;;;;;5002304;28;20228;-82
2021/03/12 10:12:26;;;;;;;3.60;1.50;;;7.20;99.90;;;;;;5007993;28;20272;-78
2021/03/12 10:14:54;;;;;;;4.13;1.50;;;7.20;99.90;;;;;;5007908;28;20205;-80
2021/03/12 10:17:19;;;;;;;2.60;1.60;;;7.40;99.90;;;;;;5000946;28;20201;-77
2021/03/12 10:19:57;;;;;;;1.90;1.45;;;7.50;99.90;;;;;;5003161;28;20198;-80
2021/03/12 10:22:43;;;;;;;2.83;1.55;;;7.50;99.90;;;;;;5002273;28;20719;-77
2021/03/12 10:25:20;;;;;;;3.05;1.60;;;7.60;99.90;;;;;;4999730;28;20318;-77
2021/03/12 10:28:08;;;;;;;2.33;1.20;;;7.90;99.90;;;;;;5023621;28;20233;-79
2021/03/12 10:30:36;;;;;;;3.13;1.30;;;7.90;99.90;;;;;;5020044;28;20684;-80
2021/03/12 10:33:21;;;;;;;3.00;1.55;;;8.30;99.90;;;;;;5001443;28;20616;-83
2021/03/12 10:35:49;;;;;;;2.47;1.40;;;8.80;99.90;;;;;;5014440;28;20285;-83
2021/03/12 10:38:19;;;;;;;2.08;1.35;;;9.10;99.90;;;;;;5039510;28;20282;-80
2021/03/12 10:40:48;;;;;;;4.03;1.52;;;8.80;99.90;;;;;;5016780;28;20217;-81
2021/03/12 10:43:17;;;;;;;2.95;1.50;;;8.40;99.90;;;;;;5031119;28;20643;-79
2021/03/12 10:45:51;;;;;;;3.30;1.30;;;8.10;99.90;;;;;;5039964;28;20201;-79
2021/03/12 10:48:25;;;;;;;3.58;1.48;;;8.10;99.90;;;;;;5041468;28;20300;-80
2021/03/12 10:50:52;;;;;;;3.13;1.30;;;7.80;99.90;;;;;;5048572;28;20188;-82
2021/03/12 10:53:19;;;;;;;2.78;1.33;;;7.90;99.90;;;;;;5010433;28;20202;-81
2021/03/12 10:55:47;;;;;;;3.45;1.15;;;7.80;99.90;;;;;;5019822;28;20198;-81
2021/03/12 10:58:34;;;;;;;3.10;1.45;;;7.60;99.90;;;;;;5014079;28;20214;-81
2021/03/12 11:01:13;;;;;;;2.63;1.30;;;7.60;99.90;;;;;;5033970;28;20301;-78
2021/03/12 11:03:44;;;;;;;5.13;1.77;;;8.00;99.90;;;;;;5038019;28;21178;-78
2021/03/12 11:06:15;;;;;;;3.53;1.25;;;8.30;99.90;;;;;;5035817;28;20597;-78
2021/03/12 11:08:41;;;;;;;3.20;1.35;;;8.60;99.90;;;;;;5035597;28;20487;-78
2021/03/12 11:11:10;;;;;;;1.88;1.20;;;9.00;99.90;;;;;;5022354;28;20729;-78
2021/03/12 11:13:37;;;;;;;2.38;1.20;;;9.00;99.90;;;;;;5037511;28;20273;-78
2021/03/12 11:16:03;;;;;;;4.75;1.60;;;9.00;99.90;;;;;;5036755;28;20563;-79
2021/03/12 11:18:30;;;;;;;5.82;1.60;;;9.10;99.90;;;;;;5016194;28;20874;-77
2021/03/12 11:20:58;;;;;;;3.70;1.67;;;9.30;99.90;;;;;;5023632;28;20252;-76
2021/03/12 11:23:25;;;;;;;2.90;1.30;;;9.30;99.90;;;;;;5043054;28;20209;-81
2021/03/12 11:25:51;;;;;;;4.97;1.60;;;9.40;99.90;;;;;;5039329;28;20217;-77
2021/03/12 11:28:16;;;;;;;3.28;1.42;;;9.70;99.90;;;;;;5041428;28;20957;-80
2021/03/12 11:30:42;;;;;;;2.97;1.50;;;9.70;99.90;;;;;;5041716;28;20204;-78
2021/03/12 11:33:08;;;;;;;6.93;2.00;;;9.90;99.90;;;;;;5038040;28;20201;-77
2021/03/12 11:35:34;;;;;;;7.10;1.95;;;9.60;99.90;;;;;;5034542;28;20195;-79
2021/03/12 11:38:00;;;;;;;5.95;1.98;;;9.50;99.90;;;;;;5041077;28;20295;-78
2021/03/12 11:40:26;;;;;;;9.65;2.20;;;9.10;99.90;;;;;;5024396;28;20679;-76
2021/03/12 11:42:52;;;;;;;7.68;1.83;;;9.10;99.90;;;;;;5024637;28;20297;-76
2021/03/12 11:45:19;;;;;;;7.07;1.52;;;9.30;99.90;;;;;;5017503;28;20190;-76
2021/03/12 11:47:45;;;;;;;7.30;1.48;;;8.90;99.90;;;;;;5037336;28;20198;-78
2021/03/12 11:50:20;;;;;;;8.65;2.22;;;8.90;99.90;;;;;;5035753;28;20200;-77
2021/03/12 11:52:47;;;;;;;7.13;1.95;;;9.10;99.90;;;;;;5035942;28;20201;-77
2021/03/12 11:55:13;;;;;;;7.22;1.73;;;9.10;99.90;;;;;;5036392;28;20209;-78
2021/03/12 11:57:39;;;;;;;7.80;2.15;;;9.30;99.90;;;;;;5036056;28;20208;-78
2021/03/12 12:00:08;;;;;;;7.43;2.05;;;9.20;99.90;;;;;;5037902;28;20205;-78
2021/03/12 12:02:34;;;;;;;11.13;2.00;;;8.80;99.90;;;;;;5016067;28;20230;-78
2021/03/12 12:05:02;;;;;;;8.95;2.20;;;8.50;99.90;;;;;;5042471;28;20221;-79
2021/03/12 12:07:28;;;;;;;12.32;2.17;;;8.10;99.90;;;;;;5036635;28;20201;-79
2021/03/12 12:09:54;;;;;;;12.98;2.28;;;8.10;99.90;;;;;;5010503;28;20293;-81
2021/03/12 12:12:19;;;;;;;7.65;2.05;;;8.20;99.90;;;;;;5019345;28;20523;-79
2021/03/12 12:14:46;;;;;;;7.97;1.85;;;8.30;99.90;;;;;;5018815;28;20237;-80
2021/03/12 12:17:12;;;;;;;8.50;2.25;;;8.30;99.90;;;;;;5022303;28;20292;-80
2021/03/12 12:19:40;;;;;;;11.30;1.92;;;8.40;99.90;;;;;;5036998;28;21022;-80
2021/03/12 12:22:06;;;;;;;12.45;2.40;;;8.80;99.90;;;;;;5021218;28;20205;-80
2021/03/12 12:24:32;;;;;;;6.90;2.10;;;8.90;99.90;;;;;;5035900;28;20194;-80
2021/03/12 12:26:58;;;;;;;9.48;1.95;;;8.60;99.90;;;;;;5035198;28;20236;-80
2021/03/12 12:29:23;;;;;;;11.32;2.70;;;8.50;99.90;;;;;;5035638;28;20203;-80
2021/03/12 12:31:49;;;;;;;10.05;2.30;;;8.20;99.90;;;;;;5019687;28;20205;-80
2021/03/12 12:34:15;;;;;;;11.13;2.25;;;7.80;99.90;;;;;;5016973;28;20710;-79
2021/03/12 12:36:41;;;;;;;12.02;1.98;;;7.80;99.90;;;;;;5038676;28;20221;-79
2021/03/12 12:39:08;;;;;;;13.40;2.88;;;7.50;99.90;;;;;;5027382;28;20205;-80
2021/03/12 12:41:35;;;;;;;12.93;2.75;;;7.40;99.90;;;;;;5018220;28;20221;-78
2021/03/12 12:44:00;;;;;;;10.50;1.95;;;7.60;99.90;;;;;;5018688;28;20205;-78
2021/03/12 12:46:26;;;;;;;15.35;2.30;;;7.80;99.90;;;;;;5035312;28;20194;-78
2021/03/12 12:48:52;;;;;;;16.02;2.08;;;7.90;99.90;;;;;;5021423;28;20279;-78
2021/03/12 12:51:18;;;;;;;11.35;2.25;;;8.00;99.90;;;;;;5023174;28;20699;-78
2021/03/12 12:53:43;;;;;;;15.20;2.50;;;8.10;99.90;;;;;;5021287;28;20197;-79
2021/03/12 12:56:09;;;;;;;8.05;2.53;;;8.10;99.90;;;;;;5014382;28;20194;-77
2021/03/12 12:58:36;;;;;;;12.60;2.63;;;8.10;99.90;;;;;;5018833;28;20204;-80
2021/03/12 13:01:02;;;;;;;9.85;2.30;;;8.00;99.90;;;;;;5037164;28;20205;-80
2021/03/12 13:03:27;;;;;;;15.18;2.47;;;8.00;99.90;;;;;;5023123;28;20613;-80
2021/03/12 13:05:53;;;;;;;17.20;2.63;;;8.10;99.90;;;;;;5019827;28;20192;-76
2021/03/12 13:08:20;;;;;;;17.42;2.65;;;8.20;99.90;;;;;;5012921;28;20572;-78
2021/03/12 13:10:46;;;;;;;12.20;2.42;;;8.50;99.90;;;;;;5017139;28;20194;-78